createdAt,value
2017-05-24T00:00:57.795Z,14.14
2017-05-24T00:01:58.474Z,14.26
2017-05-24T00:02:59.158Z,14.15
2017-05-24T00:03:59.825Z,14.23
2017-05-24T00:05:00.494Z,14.25
2017-05-24T00:06:01.166Z,14.3
2017-05-24T00:07:01.849Z,14.3
2017-05-24T00:08:02.532Z,14.25
2017-05-24T00:09:03.204Z,14.1
2017-05-24T00:10:03.879Z,14.08
2017-05-24T00:11:04.560Z,14.14
2017-05-24T00:12:05.257Z,14.05
2017-05-24T00:13:05.934Z,13.97
2017-05-24T00:14:06.604Z,14
2017-05-24T00:15:07.290Z,13.96
2017-05-24T00:16:07.978Z,13.97
2017-05-24T00:17:08.684Z,14.03
2017-05-24T00:18:09.414Z,14.07
2017-05-24T00:19:10.110Z,14.14
2017-05-24T00:20:10.784Z,14.03
2017-05-24T00:21:11.471Z,14.05
2017-05-24T00:22:12.195Z,13.93
2017-05-24T00:23:12.861Z,13.86
2017-05-24T00:24:13.532Z,13.9
2017-05-24T00:25:14.211Z,14.05
2017-05-24T00:26:14.888Z,14
2017-05-24T00:27:15.559Z,13.87
2017-05-24T00:28:16.227Z,13.9
2017-05-24T00:29:16.906Z,13.96
2017-05-24T00:30:17.585Z,13.89
2017-05-24T00:31:18.277Z,13.92
2017-05-24T00:32:18.969Z,13.87
2017-05-24T00:33:19.654Z,13.9
2017-05-24T00:34:20.330Z,13.95
2017-05-24T00:35:21.032Z,13.87
2017-05-24T00:36:21.711Z,13.85
2017-05-24T00:37:22.386Z,13.9
2017-05-24T00:38:23.062Z,13.86
2017-05-24T00:39:23.731Z,13.87
2017-05-24T00:40:24.414Z,13.78
2017-05-24T00:41:25.079Z,13.79
2017-05-24T00:42:25.757Z,13.89
2017-05-24T00:43:26.436Z,13.89
2017-05-24T00:44:27.110Z,13.89
2017-05-24T00:45:27.794Z,14
2017-05-24T00:46:28.471Z,13.89
2017-05-24T00:47:29.161Z,13.86
2017-05-24T00:48:29.830Z,13.85
2017-05-24T00:49:30.517Z,13.68
2017-05-24T00:50:31.192Z,13.77
2017-05-24T00:51:31.862Z,13.7
2017-05-24T00:52:32.543Z,13.71
2017-05-24T00:53:33.219Z,13.74
2017-05-24T00:54:33.894Z,13.72
2017-05-24T00:55:34.570Z,13.7
2017-05-24T00:56:35.242Z,13.85
2017-05-24T00:57:35.968Z,13.9
2017-05-24T00:58:36.643Z,13.93
2017-05-24T00:59:37.324Z,13.9
2017-05-24T01:00:38.002Z,13.89
2017-05-24T01:01:38.672Z,13.89
2017-05-24T01:02:39.359Z,13.89
2017-05-24T01:03:40.030Z,13.89
2017-05-24T01:04:40.709Z,13.78
2017-05-24T01:05:41.376Z,13.75
2017-05-24T01:06:42.059Z,13.77
2017-05-24T01:07:42.733Z,13.77
2017-05-24T01:08:43.409Z,13.78
2017-05-24T01:09:44.075Z,13.77
2017-05-24T01:10:44.756Z,13.74
2017-05-24T01:11:45.452Z,13.78
2017-05-24T01:12:46.127Z,13.74
2017-05-24T01:13:46.819Z,13.78
2017-05-24T01:14:47.486Z,13.79
2017-05-24T01:15:48.159Z,13.81
2017-05-24T01:16:48.820Z,13.77
2017-05-24T01:17:49.510Z,13.74
2017-05-24T01:18:50.187Z,13.65
2017-05-24T01:19:50.893Z,13.63
2017-05-24T01:20:51.575Z,13.68
2017-05-24T01:21:52.253Z,13.78
2017-05-24T01:22:52.957Z,13.78
2017-05-24T01:23:53.635Z,13.74
2017-05-24T01:24:54.312Z,13.63
2017-05-24T01:25:54.984Z,13.59
2017-05-24T01:26:55.650Z,13.52
2017-05-24T01:27:56.329Z,13.57
2017-05-24T01:28:57.006Z,13.59
2017-05-24T01:29:57.677Z,13.63
2017-05-24T01:30:58.347Z,13.63
2017-05-24T01:31:59.020Z,13.63
2017-05-24T01:32:59.693Z,13.68
2017-05-24T01:34:00.366Z,13.62
2017-05-24T01:35:01.037Z,13.54
2017-05-24T01:36:01.712Z,13.52
2017-05-24T01:37:02.390Z,13.54
2017-05-24T01:38:03.050Z,13.57
2017-05-24T01:39:03.728Z,13.59
2017-05-24T01:40:04.405Z,13.54
2017-05-24T01:41:05.081Z,13.59
2017-05-24T01:42:05.747Z,13.52
2017-05-24T01:43:06.412Z,13.59
2017-05-24T01:44:07.085Z,13.52
2017-05-24T01:45:07.755Z,13.46
2017-05-24T01:46:08.430Z,13.5
2017-05-24T01:47:09.109Z,13.49
2017-05-24T01:48:09.786Z,13.54
2017-05-24T01:49:10.461Z,13.49
2017-05-24T01:50:11.131Z,13.46
2017-05-24T01:51:11.817Z,13.47
2017-05-24T01:52:12.485Z,13.5
2017-05-24T01:53:13.160Z,13.54
2017-05-24T01:54:13.829Z,13.53
2017-05-24T01:55:14.514Z,13.59
2017-05-24T01:56:15.198Z,13.47
2017-05-24T01:57:15.874Z,13.44
2017-05-24T01:58:16.551Z,13.5
2017-05-24T01:59:17.231Z,13.59
2017-05-24T02:00:18.016Z,13.56
2017-05-24T02:01:18.699Z,13.56
2017-05-24T02:02:19.377Z,13.46
2017-05-24T02:03:20.045Z,13.46
2017-05-24T02:04:20.746Z,13.53
2017-05-24T02:05:21.420Z,13.5
2017-05-24T02:06:22.101Z,13.56
2017-05-24T02:07:22.785Z,13.59
2017-05-24T02:08:23.454Z,13.62
2017-05-24T02:09:24.218Z,13.57
2017-05-24T02:10:24.896Z,13.52
2017-05-24T02:11:25.582Z,13.63
2017-05-24T02:12:26.254Z,13.53
2017-05-24T02:13:26.947Z,13.5
2017-05-24T02:14:27.618Z,13.67
2017-05-24T02:15:28.326Z,13.63
2017-05-24T02:16:28.993Z,13.67
2017-05-24T02:17:29.655Z,13.56
2017-05-24T02:18:30.332Z,13.56
2017-05-24T02:19:31.016Z,13.5
2017-05-24T02:20:31.694Z,13.52
2017-05-24T02:21:32.373Z,13.56
2017-05-24T02:22:33.043Z,13.53
2017-05-24T02:23:33.709Z,13.49
2017-05-24T02:24:34.383Z,13.47
2017-05-24T02:25:35.075Z,13.52
2017-05-24T02:26:35.755Z,13.49
2017-05-24T02:27:36.431Z,13.5
2017-05-24T02:28:37.116Z,13.42
2017-05-24T02:29:37.790Z,13.35
2017-05-24T02:30:38.457Z,13.42
2017-05-24T02:31:39.137Z,13.46
2017-05-24T02:32:39.817Z,13.49
2017-05-24T02:33:40.490Z,13.52
2017-05-24T02:34:41.242Z,13.5
2017-05-24T02:35:41.900Z,13.42
2017-05-24T02:36:42.592Z,13.38
2017-05-24T02:37:43.274Z,13.37
2017-05-24T02:38:43.947Z,13.37
2017-05-24T02:39:44.631Z,13.23
2017-05-24T02:40:45.315Z,13.27
2017-05-24T02:41:45.998Z,13.22
2017-05-24T02:42:46.672Z,13.2
2017-05-24T02:43:47.348Z,13.22
2017-05-24T02:44:48.022Z,13.31
2017-05-24T02:45:48.705Z,13.37
2017-05-24T02:46:49.374Z,13.25
2017-05-24T02:47:50.044Z,13.35
2017-05-24T02:48:50.724Z,13.35
2017-05-24T02:49:51.412Z,13.47
2017-05-24T02:50:52.089Z,13.42
2017-05-24T02:51:52.773Z,13.5
2017-05-24T02:52:53.450Z,13.38
2017-05-24T02:53:54.119Z,13.28
2017-05-24T02:54:54.791Z,13.39
2017-05-24T02:55:55.467Z,13.3
2017-05-24T02:56:56.137Z,13.27
2017-05-24T02:57:56.815Z,13.42
2017-05-24T02:58:57.491Z,13.38
2017-05-24T02:59:58.165Z,13.31
2017-05-24T03:00:58.844Z,13.23
2017-05-24T03:01:59.529Z,13.25
2017-05-24T03:03:00.215Z,13.28
2017-05-24T03:04:00.891Z,13.27
2017-05-24T03:05:01.577Z,13.28
2017-05-24T03:06:02.256Z,13.39
2017-05-24T03:07:02.927Z,13.27
2017-05-24T03:08:03.592Z,13.22
2017-05-24T03:09:04.289Z,13.25
2017-05-24T03:10:04.967Z,13.22
2017-05-24T03:11:05.665Z,13.23
2017-05-24T03:12:06.341Z,13.27
2017-05-24T03:13:07.010Z,13.15
2017-05-24T03:14:07.704Z,13.18
2017-05-24T03:15:08.378Z,13.22
2017-05-24T03:16:09.052Z,13.08
2017-05-24T03:17:09.733Z,13.16
2017-05-24T03:18:10.405Z,13.09
2017-05-24T03:19:11.072Z,13.11
2017-05-24T03:20:11.741Z,13.08
2017-05-24T03:21:12.415Z,13.15
2017-05-24T03:22:13.089Z,13.2
2017-05-24T03:23:13.762Z,13.09
2017-05-24T03:24:14.433Z,13.18
2017-05-24T03:25:15.108Z,13.18
2017-05-24T03:26:15.785Z,13.18
2017-05-24T03:27:16.459Z,13.23
2017-05-24T03:28:17.155Z,13.19
2017-05-24T03:29:17.836Z,13.25
2017-05-24T03:30:18.507Z,13.22
2017-05-24T03:31:19.174Z,13.25
2017-05-24T03:32:19.875Z,13.3
2017-05-24T03:33:20.584Z,13.33
2017-05-24T03:34:21.273Z,13.35
2017-05-24T03:35:21.956Z,13.39
2017-05-24T03:36:22.634Z,13.39
2017-05-24T03:37:23.321Z,13.44
2017-05-24T03:38:23.990Z,13.46
2017-05-24T03:39:24.666Z,13.35
2017-05-24T03:40:25.345Z,13.39
2017-05-24T03:41:26.028Z,13.38
2017-05-24T03:42:26.697Z,13.46
2017-05-24T03:43:27.385Z,13.47
2017-05-24T03:44:28.044Z,13.41
2017-05-24T03:45:28.705Z,13.44
2017-05-24T03:46:29.390Z,13.46
2017-05-24T03:47:30.049Z,13.33
2017-05-24T03:48:30.726Z,13.5
2017-05-24T03:49:31.404Z,13.49
2017-05-24T03:50:32.078Z,13.52
2017-05-24T03:51:32.744Z,13.44
2017-05-24T03:52:33.408Z,13.5
2017-05-24T03:53:34.110Z,13.47
2017-05-24T03:54:34.791Z,13.42
2017-05-24T03:55:35.474Z,13.56
2017-05-24T03:56:36.151Z,13.54
2017-05-24T03:57:36.823Z,13.59
2017-05-24T03:58:37.507Z,13.63
2017-05-24T03:59:38.178Z,13.67
2017-05-24T04:00:38.841Z,13.65
2017-05-24T04:01:39.519Z,13.6
2017-05-24T04:02:40.196Z,13.6
2017-05-24T04:03:40.871Z,13.59
2017-05-24T04:04:41.575Z,13.52
2017-05-24T04:05:42.317Z,13.52
2017-05-24T04:06:43.002Z,13.46
2017-05-24T04:07:43.703Z,13.54
2017-05-24T04:08:44.374Z,13.54
2017-05-24T04:09:45.141Z,13.49
2017-05-24T04:10:45.825Z,13.44
2017-05-24T04:11:46.496Z,13.53
2017-05-24T04:12:47.175Z,13.47
2017-05-24T04:13:47.858Z,13.37
2017-05-24T04:14:48.539Z,13.52
2017-05-24T04:15:49.221Z,13.47
2017-05-24T04:16:49.920Z,13.53
2017-05-24T04:17:50.594Z,13.56
2017-05-24T04:18:51.293Z,13.54
2017-05-24T04:19:51.999Z,13.5
2017-05-24T04:20:52.678Z,13.49
2017-05-24T04:21:53.361Z,13.42
2017-05-24T04:22:54.039Z,13.41
2017-05-24T04:23:54.727Z,13.52
2017-05-24T04:24:55.414Z,13.38
2017-05-24T04:25:56.112Z,13.41
2017-05-24T04:26:56.790Z,13.35
2017-05-24T04:27:57.467Z,13.38
2017-05-24T04:28:58.154Z,13.39
2017-05-24T04:29:58.842Z,13.44
2017-05-24T04:30:59.513Z,13.47
2017-05-24T04:32:00.197Z,13.46
2017-05-24T04:33:00.868Z,13.5
2017-05-24T04:34:01.547Z,13.52
2017-05-24T04:35:02.234Z,13.49
2017-05-24T04:36:02.901Z,13.52
2017-05-24T04:37:03.586Z,13.53
2017-05-24T04:38:04.281Z,13.62
2017-05-24T04:39:04.952Z,13.59
2017-05-24T04:40:05.675Z,13.53
2017-05-24T04:41:06.359Z,13.68
2017-05-24T04:42:07.037Z,13.72
2017-05-24T04:43:08.201Z,13.7
2017-05-24T04:44:08.979Z,13.78
2017-05-24T04:45:09.666Z,13.77
2017-05-24T04:46:10.350Z,13.74
2017-05-24T04:47:11.056Z,13.77
2017-05-24T04:48:11.739Z,13.78
2017-05-24T04:49:12.423Z,13.75
2017-05-24T04:50:13.090Z,13.9
2017-05-24T04:51:13.781Z,13.86
2017-05-24T04:52:14.456Z,13.79
2017-05-24T04:53:15.172Z,13.86
2017-05-24T04:54:15.869Z,13.83
2017-05-24T04:55:16.551Z,13.99
2017-05-24T04:56:17.222Z,13.95
2017-05-24T04:57:17.897Z,13.85
2017-05-24T04:58:18.567Z,13.86
2017-05-24T04:59:19.256Z,13.83
2017-05-24T05:00:19.934Z,13.93
2017-05-24T05:01:20.653Z,13.86
2017-05-24T05:02:21.341Z,13.89
2017-05-24T05:03:22.027Z,13.85
2017-05-24T05:04:22.715Z,14.03
2017-05-24T05:05:23.420Z,13.96
2017-05-24T05:06:24.101Z,13.93
2017-05-24T05:07:24.782Z,13.95
2017-05-24T05:08:25.495Z,14
2017-05-24T05:09:26.238Z,14
2017-05-24T05:10:26.949Z,14.05
2017-05-24T05:11:27.629Z,13.96
2017-05-24T05:12:28.304Z,14.03
2017-05-24T05:13:29.007Z,13.96
2017-05-24T05:14:29.703Z,14.1
2017-05-24T05:15:30.417Z,14.03
2017-05-24T05:16:31.100Z,14.03
2017-05-24T05:17:31.775Z,14.14
2017-05-24T05:18:32.466Z,14.11
2017-05-24T05:19:33.140Z,14.08
2017-05-24T05:20:33.829Z,14.23
2017-05-24T05:21:34.509Z,14.14
2017-05-24T05:22:35.184Z,14.22
2017-05-24T05:23:35.862Z,14.08
2017-05-24T05:24:36.535Z,14.07
2017-05-24T05:25:37.249Z,14.26
2017-05-24T05:26:37.922Z,14.28
2017-05-24T05:27:38.597Z,14.41
2017-05-24T05:28:39.277Z,14.66
2017-05-24T05:29:39.973Z,14.82
2017-05-24T05:30:40.711Z,14.89
2017-05-24T05:31:41.417Z,14.86
2017-05-24T05:32:42.110Z,14.96
2017-05-24T05:33:42.784Z,15.03
2017-05-24T05:34:43.448Z,15
2017-05-24T05:35:44.131Z,15.04
2017-05-24T05:36:44.805Z,15.06
2017-05-24T05:37:45.477Z,15.07
2017-05-24T05:38:46.158Z,15.07
2017-05-24T05:39:46.855Z,15.03
2017-05-24T05:40:47.533Z,15.06
2017-05-24T05:41:48.220Z,15.11
2017-05-24T05:42:48.903Z,15.11
2017-05-24T05:43:49.608Z,15.31
2017-05-24T05:44:50.289Z,15.46
2017-05-24T05:45:50.978Z,15.65
2017-05-24T05:46:51.666Z,15.7
2017-05-24T05:47:52.362Z,15.79
2017-05-24T05:48:53.058Z,15.86
2017-05-24T05:49:53.733Z,15.84
2017-05-24T05:50:54.412Z,15.88
2017-05-24T05:51:55.090Z,16
2017-05-24T05:52:55.770Z,16.09
2017-05-24T05:53:56.455Z,16.09
2017-05-24T05:54:57.143Z,16.02
2017-05-24T05:55:57.811Z,16.1
2017-05-24T05:56:58.501Z,16.16
2017-05-24T05:57:59.327Z,16.05
2017-05-24T05:59:00.004Z,16.05
2017-05-24T06:00:00.683Z,15.95
2017-05-24T06:01:01.410Z,15.68
2017-05-24T06:02:02.100Z,15.79
2017-05-24T06:03:02.804Z,15.67
2017-05-24T06:04:03.522Z,15.64
2017-05-24T06:05:04.203Z,15.57
2017-05-24T06:06:04.889Z,15.58
2017-05-24T06:07:05.610Z,15.51
2017-05-24T06:08:06.288Z,15.44
2017-05-24T06:09:06.965Z,15.36
2017-05-24T06:10:07.641Z,15.37
2017-05-24T06:11:08.331Z,15.35
2017-05-24T06:12:09.017Z,15.27
2017-05-24T06:13:09.693Z,15.43
2017-05-24T06:14:10.371Z,15.44
2017-05-24T06:15:11.067Z,15.62
2017-05-24T06:16:11.757Z,15.57
2017-05-24T06:17:12.454Z,15.65
2017-05-24T06:18:13.141Z,15.72
2017-05-24T06:19:13.825Z,15.84
2017-05-24T06:20:14.519Z,15.72
2017-05-24T06:21:15.212Z,15.68
2017-05-24T06:22:15.889Z,15.84
2017-05-24T06:23:16.604Z,15.86
2017-05-24T06:24:17.290Z,15.95
2017-05-24T06:25:17.971Z,16.12
2017-05-24T06:26:18.677Z,16.32
2017-05-24T06:27:19.359Z,16.31
2017-05-24T06:28:20.054Z,16.66
2017-05-24T06:29:20.743Z,17.08
2017-05-24T06:30:21.423Z,17.02
2017-05-24T06:31:22.108Z,17.19
2017-05-24T06:32:22.797Z,16.89
2017-05-24T06:33:23.519Z,16.58
2017-05-24T06:34:24.228Z,16.91
2017-05-24T06:35:24.949Z,16.86
2017-05-24T06:36:25.650Z,16.79
2017-05-24T06:37:26.343Z,17.3
2017-05-24T06:38:27.033Z,17.7
2017-05-24T06:39:27.722Z,18.03
2017-05-24T06:40:28.404Z,18.08
2017-05-24T06:41:29.085Z,18.23
2017-05-24T06:42:29.862Z,18.55
2017-05-24T06:43:30.822Z,18.7
2017-05-24T06:44:31.869Z,19.27
2017-05-24T06:45:32.822Z,19.73
2017-05-24T06:46:33.519Z,20.4
2017-05-24T06:47:34.211Z,20.06
2017-05-24T06:48:34.919Z,20.34
2017-05-24T06:49:35.618Z,20.24
2017-05-24T06:50:36.336Z,20.03
2017-05-24T06:51:37.083Z,19.52
2017-05-24T06:52:37.765Z,19.14
2017-05-24T06:53:38.471Z,19.02
2017-05-24T06:54:39.158Z,18.84
2017-05-24T06:55:39.870Z,18.75
2017-05-24T06:56:40.561Z,18.29
2017-05-24T06:57:41.421Z,18.22
2017-05-24T06:58:42.156Z,18.45
2017-05-24T06:59:42.929Z,18.18
2017-05-24T07:00:43.722Z,18.16
2017-05-24T07:01:44.557Z,17.86
2017-05-24T07:02:45.255Z,17.82
2017-05-24T07:03:45.939Z,17.67
2017-05-24T07:04:46.655Z,17.45
2017-05-24T07:05:47.333Z,17.94
2017-05-24T07:06:48.024Z,17.52
2017-05-24T07:07:48.728Z,17.39
2017-05-24T07:08:49.425Z,18.16
2017-05-24T07:09:50.116Z,18.78
2017-05-24T07:10:50.832Z,19.09
2017-05-24T07:11:51.584Z,19.71
2017-05-24T07:12:52.271Z,19.44
2017-05-24T07:13:52.990Z,19.09
2017-05-24T07:14:53.672Z,19.45
2017-05-24T07:15:54.357Z,19.24
2017-05-24T07:16:55.066Z,19.34
2017-05-24T07:17:55.754Z,19.02
2017-05-24T07:18:56.504Z,18.75
2017-05-24T07:19:57.206Z,18.6
2017-05-24T07:20:57.896Z,18.25
2017-05-24T07:21:58.595Z,18.05
2017-05-24T07:22:59.288Z,18.01
2017-05-24T07:23:59.986Z,18.23
2017-05-24T07:25:00.680Z,18.18
2017-05-24T07:26:01.368Z,18.03
2017-05-24T07:27:02.066Z,17.98
2017-05-24T07:28:02.775Z,18.35
2017-05-24T07:29:03.481Z,18.29
2017-05-24T07:30:04.159Z,17.9
2017-05-24T07:31:04.858Z,17.83
2017-05-24T07:32:05.543Z,18.15
2017-05-24T07:33:06.227Z,17.86
2017-05-24T07:34:06.923Z,17.9
2017-05-24T07:35:07.618Z,17.95
2017-05-24T07:36:08.352Z,18.53
2017-05-24T07:37:09.042Z,18.9
2017-05-24T07:38:09.762Z,19.4
2017-05-24T07:39:10.459Z,19.7
2017-05-24T07:40:11.170Z,20.21
2017-05-24T07:41:11.860Z,20.8
2017-05-24T07:42:12.566Z,21.11
2017-05-24T07:43:13.331Z,21.36
2017-05-24T07:44:14.022Z,21.17
2017-05-24T07:45:14.758Z,20.92
2017-05-24T07:46:15.453Z,21.15
2017-05-24T07:47:16.215Z,21.35
2017-05-24T07:48:16.951Z,21.21
2017-05-24T07:49:17.757Z,20.93
2017-05-24T07:50:18.742Z,21.25
2017-05-24T07:51:19.508Z,21.66
2017-05-24T07:52:20.220Z,21.58
2017-05-24T07:53:21.135Z,21.02
2017-05-24T07:54:21.873Z,20.81
2017-05-24T07:55:22.663Z,20.22
2017-05-24T07:56:23.379Z,19.92
2017-05-24T07:57:24.123Z,19.73
2017-05-24T07:58:24.860Z,19.36
2017-05-24T07:59:25.553Z,19.12
2017-05-24T08:00:26.277Z,18.96
2017-05-24T08:01:27.029Z,18.7
2017-05-24T08:02:27.853Z,18.59
2017-05-24T08:03:28.564Z,18.31
2017-05-24T08:04:29.268Z,18.59
2017-05-24T08:05:30.037Z,19.09
2017-05-24T08:06:30.779Z,19.55
2017-05-24T08:07:31.653Z,20.11
2017-05-24T08:08:32.424Z,20.59
2017-05-24T08:09:33.163Z,21.02
2017-05-24T08:10:34.087Z,21.09
2017-05-24T08:11:34.991Z,20.96
2017-05-24T08:12:35.752Z,20.56
2017-05-24T08:13:36.489Z,20.28
2017-05-24T08:14:37.228Z,19.79
2017-05-24T08:15:37.944Z,19.56
2017-05-24T08:16:38.668Z,19.3
2017-05-24T08:17:39.618Z,19.12
2017-05-24T08:18:40.434Z,19.41
2017-05-24T08:19:41.184Z,19.76
2017-05-24T08:20:41.920Z,20.19
2017-05-24T08:21:42.694Z,20.02
2017-05-24T08:22:43.391Z,20
2017-05-24T08:23:44.166Z,20.31
2017-05-24T08:24:44.865Z,20.5
2017-05-24T08:25:45.681Z,20.65
2017-05-24T08:26:46.421Z,20.32
2017-05-24T08:27:47.458Z,19.85
2017-05-24T08:28:48.199Z,19.56
2017-05-24T08:29:48.900Z,19.49
2017-05-24T08:30:49.632Z,19.67
2017-05-24T08:31:50.327Z,19.31
2017-05-24T08:32:51.021Z,19.67
2017-05-24T08:33:51.728Z,19.86
2017-05-24T08:34:52.420Z,19.88
2017-05-24T08:35:53.106Z,19.79
2017-05-24T08:36:53.795Z,19.79
2017-05-24T08:37:54.524Z,19.62
2017-05-24T08:38:55.229Z,19.58
2017-05-24T08:39:55.927Z,19.58
2017-05-24T08:40:56.616Z,19.45
2017-05-24T08:41:57.336Z,18.99
2017-05-24T08:42:58.048Z,18.88
2017-05-24T08:43:58.746Z,18.68
2017-05-24T08:44:59.449Z,18.59
2017-05-24T08:46:00.164Z,18.45
2017-05-24T08:47:00.865Z,18.38
2017-05-24T08:48:01.561Z,18.38
2017-05-24T08:49:02.242Z,18.22
2017-05-24T08:50:02.930Z,18.35
2017-05-24T08:51:03.637Z,18.38
2017-05-24T08:52:04.363Z,18.29
2017-05-24T08:53:05.079Z,18.37
2017-05-24T08:54:05.760Z,18.03
2017-05-24T08:55:06.451Z,18.01
2017-05-24T08:56:07.142Z,17.82
2017-05-24T08:57:07.833Z,17.82
2017-05-24T08:58:08.553Z,18.13
2017-05-24T08:59:09.230Z,18.4
2017-05-24T09:00:09.904Z,18.41
2017-05-24T09:01:10.591Z,18.41
2017-05-24T09:02:11.273Z,18.43
2017-05-24T09:03:11.985Z,18.55
2017-05-24T09:04:12.673Z,18.45
2017-05-24T09:05:13.354Z,18.35
2017-05-24T09:06:14.046Z,18.35
2017-05-24T09:07:14.755Z,18.34
2017-05-24T09:08:15.457Z,18.34
2017-05-24T09:09:16.141Z,18.03
2017-05-24T09:10:16.834Z,17.89
2017-05-24T09:11:17.534Z,17.87
2017-05-24T09:12:18.222Z,18.03
2017-05-24T09:13:18.910Z,18.01
2017-05-24T09:14:19.616Z,18.23
2017-05-24T09:15:20.300Z,18.44
2017-05-24T09:16:20.989Z,18.74
2017-05-24T09:17:21.680Z,18.8
2017-05-24T09:18:22.358Z,18.89
2017-05-24T09:19:23.048Z,18.83
2017-05-24T09:20:23.762Z,18.65
2017-05-24T09:21:24.450Z,18.53
2017-05-24T09:22:25.148Z,18.5
2017-05-24T09:23:25.850Z,18.37
2017-05-24T09:24:26.566Z,18.19
2017-05-24T09:25:27.241Z,18.04
2017-05-24T09:26:27.926Z,18.07
2017-05-24T09:27:28.635Z,18
2017-05-24T09:28:29.348Z,18.31
2017-05-24T09:29:30.032Z,18.7
2017-05-24T09:30:30.735Z,18.98
2017-05-24T09:31:31.428Z,19.02
2017-05-24T09:32:32.166Z,19.08
2017-05-24T09:33:32.859Z,19.29
2017-05-24T09:34:33.583Z,19.39
2017-05-24T09:35:34.291Z,19.47
2017-05-24T09:36:34.993Z,19.48
2017-05-24T09:37:35.707Z,19.22
2017-05-24T09:38:36.450Z,19
2017-05-24T09:39:37.148Z,19.15
2017-05-24T09:40:37.854Z,19.11
2017-05-24T09:41:38.560Z,18.88
2017-05-24T09:42:39.255Z,18.83
2017-05-24T09:43:39.967Z,18.55
2017-05-24T09:44:40.721Z,18.53
2017-05-24T09:45:41.530Z,18.44
2017-05-24T09:46:42.244Z,18.53
2017-05-24T09:47:42.929Z,18.31
2017-05-24T09:48:43.616Z,18.18
2017-05-24T09:49:44.305Z,18.22
2017-05-24T09:50:45.006Z,18.08
2017-05-24T09:51:45.725Z,18.2
2017-05-24T09:52:46.418Z,18.33
2017-05-24T09:53:47.114Z,18.4
2017-05-24T09:54:47.846Z,18.37
2017-05-24T09:55:48.554Z,18.49
2017-05-24T09:56:49.265Z,18.55
2017-05-24T09:57:49.956Z,18.73
2017-05-24T09:58:50.660Z,18.8
2017-05-24T09:59:51.379Z,18.89
2017-05-24T10:00:52.060Z,18.98
2017-05-24T10:01:52.784Z,18.99
2017-05-24T10:02:53.487Z,19.08
2017-05-24T10:03:54.210Z,19.08
2017-05-24T10:04:54.900Z,19.21
2017-05-24T10:05:55.600Z,19.18
2017-05-24T10:06:56.315Z,18.89
2017-05-24T10:07:56.993Z,18.86
2017-05-24T10:08:57.681Z,18.86
2017-05-24T10:09:58.362Z,18.88
2017-05-24T10:10:59.052Z,18.8
2017-05-24T10:11:59.749Z,18.66
2017-05-24T10:13:00.444Z,18.59
2017-05-24T10:14:01.131Z,18.5
2017-05-24T10:15:01.820Z,18.56
2017-05-24T10:16:02.532Z,18.47
2017-05-24T10:17:03.280Z,18.43
2017-05-24T10:18:03.918Z,18.26
2017-05-24T10:19:04.618Z,18.19
2017-05-24T10:20:05.313Z,18.44
2017-05-24T10:21:06.001Z,18.63
2017-05-24T10:22:06.701Z,18.62
2017-05-24T10:23:07.387Z,18.59
2017-05-24T10:24:08.064Z,18.7
2017-05-24T10:25:08.756Z,18.62
2017-05-24T10:26:09.448Z,18.62
2017-05-24T10:27:10.131Z,18.68
2017-05-24T10:28:10.805Z,18.86
2017-05-24T10:29:11.509Z,18.86
2017-05-24T10:30:12.235Z,19.02
2017-05-24T10:31:12.903Z,18.88
2017-05-24T10:32:13.631Z,18.65
2017-05-24T10:33:14.310Z,18.44
2017-05-24T10:34:15.010Z,18.41
2017-05-24T10:35:15.694Z,18.5
2017-05-24T10:36:16.382Z,18.49
2017-05-24T10:37:17.065Z,18.52
2017-05-24T10:38:17.784Z,18.5
2017-05-24T10:39:18.473Z,18.53
2017-05-24T10:40:19.157Z,18.68
2017-05-24T10:41:19.853Z,18.58
2017-05-24T10:42:20.550Z,18.56
2017-05-24T10:43:21.245Z,18.59
2017-05-24T10:44:21.948Z,18.6
2017-05-24T10:45:22.653Z,18.56
2017-05-24T10:46:23.347Z,18.58
2017-05-24T10:47:24.044Z,18.63
2017-05-24T10:48:24.770Z,18.68
2017-05-24T10:49:25.456Z,18.6
2017-05-24T10:50:26.149Z,18.53
2017-05-24T10:51:26.830Z,18.5
2017-05-24T10:52:27.526Z,18.59
2017-05-24T10:53:28.229Z,18.53
2017-05-24T10:54:28.925Z,18.6
2017-05-24T10:55:29.590Z,18.56
2017-05-24T10:56:30.269Z,18.62
2017-05-24T10:57:31.102Z,18.58
2017-05-24T10:58:31.827Z,18.65
2017-05-24T10:59:32.542Z,18.63
2017-05-24T11:00:33.223Z,18.71
2017-05-24T11:01:33.910Z,18.89
2017-05-24T11:02:34.609Z,18.84
2017-05-24T11:03:35.290Z,18.92
2017-05-24T11:04:35.993Z,18.89
2017-05-24T11:05:36.695Z,18.88
2017-05-24T11:06:37.394Z,18.86
2017-05-24T11:07:38.100Z,18.84
2017-05-24T11:08:38.792Z,18.66
2017-05-24T11:09:39.483Z,18.65
2017-05-24T11:10:40.163Z,18.5
2017-05-24T11:11:40.848Z,18.52
2017-05-24T11:12:41.540Z,18.53
2017-05-24T11:13:42.263Z,18.49
2017-05-24T11:14:42.967Z,18.52
2017-05-24T11:15:43.668Z,18.63
2017-05-24T11:16:44.373Z,18.71
2017-05-24T11:17:45.161Z,18.59
2017-05-24T11:18:45.861Z,18.65
2017-05-24T11:19:46.538Z,18.65
2017-05-24T11:20:47.279Z,18.55
2017-05-24T11:21:47.966Z,18.6
2017-05-24T11:22:48.663Z,18.59
2017-05-24T11:23:49.366Z,18.66
2017-05-24T11:24:50.058Z,18.68
2017-05-24T11:25:50.773Z,18.75
2017-05-24T11:26:51.458Z,18.86
2017-05-24T11:27:52.148Z,18.92
2017-05-24T11:28:52.831Z,18.86
2017-05-24T11:29:53.512Z,18.81
2017-05-24T11:30:54.212Z,18.74
2017-05-24T11:31:54.919Z,18.66
2017-05-24T11:32:55.643Z,18.66
2017-05-24T11:33:56.330Z,18.58
2017-05-24T11:34:56.998Z,18.52
2017-05-24T11:35:57.698Z,18.41
2017-05-24T11:36:58.390Z,18.4
2017-05-24T11:37:59.079Z,18.53
2017-05-24T11:38:59.771Z,18.53
2017-05-24T11:40:00.458Z,18.43
2017-05-24T11:41:01.144Z,18.47
2017-05-24T11:42:01.843Z,18.4
2017-05-24T11:43:02.574Z,18.45
2017-05-24T11:44:03.254Z,18.49
2017-05-24T11:45:03.955Z,18.52
2017-05-24T11:46:04.645Z,18.5
2017-05-24T11:47:05.370Z,18.55
2017-05-24T11:48:06.072Z,18.5
2017-05-24T11:49:06.757Z,18.52
2017-05-24T11:50:07.431Z,18.53
2017-05-24T11:51:08.120Z,18.49
2017-05-24T11:52:08.803Z,18.35
2017-05-24T11:53:09.500Z,18.22
2017-05-24T11:54:10.182Z,18.23
2017-05-24T11:55:10.874Z,18.33
2017-05-24T11:56:11.567Z,18.25
2017-05-24T11:57:12.250Z,18.28
2017-05-24T11:58:12.947Z,18.23
2017-05-24T11:59:13.626Z,18.23
2017-05-24T12:00:14.309Z,18.22
2017-05-24T12:01:15.000Z,18.2
2017-05-24T12:02:15.674Z,18.04
2017-05-24T12:03:16.366Z,18.01
2017-05-24T12:04:17.069Z,18.04
2017-05-24T12:05:17.756Z,18.03
2017-05-24T12:06:18.470Z,18.03
2017-05-24T12:07:19.189Z,18
2017-05-24T12:08:20.024Z,18.05
2017-05-24T12:09:20.741Z,18.13
2017-05-24T12:10:21.433Z,18.18
2017-05-24T12:11:22.117Z,18.19
2017-05-24T12:12:22.797Z,18.26
2017-05-24T12:13:23.484Z,18.33
2017-05-24T12:14:24.162Z,18.37
2017-05-24T12:15:24.855Z,18.47
2017-05-24T12:16:25.537Z,18.45
2017-05-24T12:17:26.235Z,18.5
2017-05-24T12:18:26.935Z,18.43
2017-05-24T12:19:27.623Z,18.38
2017-05-24T12:20:28.315Z,18.44
2017-05-24T12:21:29.007Z,18.44
2017-05-24T12:22:29.749Z,18.4
2017-05-24T12:23:30.432Z,18.43
2017-05-24T12:24:31.120Z,18.38
2017-05-24T12:25:31.822Z,18.47
2017-05-24T12:26:32.544Z,18.5
2017-05-24T12:27:33.227Z,18.45
2017-05-24T12:28:33.904Z,18.5
2017-05-24T12:29:34.590Z,18.49
2017-05-24T12:30:35.307Z,18.28
2017-05-24T12:31:35.956Z,18.35
2017-05-24T12:32:36.638Z,18.34
2017-05-24T12:33:37.335Z,18.33
2017-05-24T12:34:38.015Z,18.37
2017-05-24T12:35:38.697Z,18.38
2017-05-24T12:36:39.370Z,18.43
2017-05-24T12:37:40.072Z,18.38
2017-05-24T12:38:40.773Z,18.5
2017-05-24T12:39:41.476Z,18.49
2017-05-24T12:40:42.170Z,18.55
2017-05-24T12:41:42.872Z,18.38
2017-05-24T12:42:43.561Z,18.29
2017-05-24T12:43:44.241Z,18.26
2017-05-24T12:44:44.975Z,18.35
2017-05-24T12:45:45.684Z,18.22
2017-05-24T12:46:46.444Z,18.11
2017-05-24T12:47:47.136Z,18.04
2017-05-24T12:48:47.880Z,18.07
2017-05-24T12:49:48.658Z,18
2017-05-24T12:50:49.544Z,18.04
2017-05-24T12:51:50.234Z,18.13
2017-05-24T12:52:51.091Z,18.03
2017-05-24T12:53:51.775Z,18
2017-05-24T12:54:52.499Z,18.03
2017-05-24T12:55:53.223Z,18.04
2017-05-24T12:56:54.164Z,17.97
2017-05-24T12:57:54.999Z,17.95
2017-05-24T12:58:55.686Z,18.04
2017-05-24T12:59:56.382Z,18.01
2017-05-24T13:00:57.088Z,18
2017-05-24T13:01:57.793Z,17.95
2017-05-24T13:02:58.474Z,17.86
2017-05-24T13:03:59.162Z,17.79
2017-05-24T13:04:59.854Z,17.8
2017-05-24T13:06:00.543Z,17.79